sensor_id;sensor_type;location;lat;lon;timestamp;P1;durP1;ratioP1;P2;durP2;ratioP2
16139;SDS011;8175;49.326;12.690;2023-02-10T00:00:55;49.13;;;25.60;;
16139;SDS011;8175;49.326;12.690;2023-02-10T00:03:21;44.53;;;24.07;;
16139;SDS011;8175;49.326;12.690;2023-02-10T00:05:47;47.87;;;26.10;;
16139;SDS011;8175;49.326;12.690;2023-02-10T00:08:13;50.30;;;25.87;;
16139;SDS011;8175;49.326;12.690;2023-02-10T00:10:38;45.43;;;26.50;;
16139;SDS011;8175;49.326;12.690;2023-02-10T00:13:04;40.93;;;22.67;;
16139;SDS011;8175;49.326;12.690;2023-02-10T00:15:29;43.23;;;23.43;;
16139;SDS011;8175;49.326;12.690;2023-02-10T00:17:55;47.70;;;24.33;;
16139;SDS011;8175;49.326;12.690;2023-02-10T00:20:21;43.83;;;25.07;;
16139;SDS011;8175;49.326;12.690;2023-02-10T00:22:46;42.27;;;22.70;;
16139;SDS011;8175;49.326;12.690;2023-02-10T00:25:12;43.90;;;25.03;;
16139;SDS011;8175;49.326;12.690;2023-02-10T00:27:37;47.90;;;25.63;;
16139;SDS011;8175;49.326;12.690;2023-02-10T00:30:03;53.77;;;27.60;;
16139;SDS011;8175;49.326;12.690;2023-02-10T00:32:29;49.13;;;25.93;;
16139;SDS011;8175;49.326;12.690;2023-02-10T00:34:54;57.00;;;30.93;;
16139;SDS011;8175;49.326;12.690;2023-02-10T00:37:20;54.37;;;28.10;;
16139;SDS011;8175;49.326;12.690;2023-02-10T00:39:46;53.47;;;30.30;;
16139;SDS011;8175;49.326;12.690;2023-02-10T00:42:11;52.67;;;28.90;;
16139;SDS011;8175;49.326;12.690;2023-02-10T00:44:37;47.47;;;25.27;;
16139;SDS011;8175;49.326;12.690;2023-02-10T00:47:02;42.03;;;24.67;;
16139;SDS011;8175;49.326;12.690;2023-02-10T00:49:28;43.20;;;24.43;;
16139;SDS011;8175;49.326;12.690;2023-02-10T00:51:54;40.37;;;23.57;;
16139;SDS011;8175;49.326;12.690;2023-02-10T00:54:19;38.83;;;23.70;;
16139;SDS011;8175;49.326;12.690;2023-02-10T00:56:45;41.40;;;24.80;;
16139;SDS011;8175;49.326;12.690;2023-02-10T00:59:12;51.47;;;27.97;;
16139;SDS011;8175;49.326;12.690;2023-02-10T01:01:38;49.93;;;27.33;;
16139;SDS011;8175;49.326;12.690;2023-02-10T01:04:03;55.30;;;28.77;;
16139;SDS011;8175;49.326;12.690;2023-02-10T01:06:29;54.90;;;28.83;;
16139;SDS011;8175;49.326;12.690;2023-02-10T01:08:55;54.00;;;29.80;;
16139;SDS011;8175;49.326;12.690;2023-02-10T01:11:20;45.50;;;27.20;;
16139;SDS011;8175;49.326;12.690;2023-02-10T01:13:46;37.47;;;23.10;;
16139;SDS011;8175;49.326;12.690;2023-02-10T01:16:13;45.17;;;26.67;;
16139;SDS011;8175;49.326;12.690;2023-02-10T01:18:41;46.97;;;25.53;;
16139;SDS011;8175;49.326;12.690;2023-02-10T01:21:08;47.10;;;25.73;;
16139;SDS011;8175;49.326;12.690;2023-02-10T01:23:35;45.97;;;26.77;;
16139;SDS011;8175;49.326;12.690;2023-02-10T01:26:01;47.40;;;26.53;;
16139;SDS011;8175;49.326;12.690;2023-02-10T01:28:27;55.93;;;28.37;;
16139;SDS011;8175;49.326;12.690;2023-02-10T01:30:53;54.53;;;29.67;;
16139;SDS011;8175;49.326;12.690;2023-02-10T01:33:18;50.00;;;31.03;;
16139;SDS011;8175;49.326;12.690;2023-02-10T01:35:44;50.97;;;26.70;;
16139;SDS011;8175;49.326;12.690;2023-02-10T01:38:10;52.37;;;28.13;;
16139;SDS011;8175;49.326;12.690;2023-02-10T01:40:36;54.40;;;30.80;;
16139;SDS011;8175;49.326;12.690;2023-02-10T01:43:02;51.83;;;28.03;;
16139;SDS011;8175;49.326;12.690;2023-02-10T01:45:32;46.03;;;27.63;;
16139;SDS011;8175;49.326;12.690;2023-02-10T01:48:02;52.80;;;28.47;;
16139;SDS011;8175;49.326;12.690;2023-02-10T01:50:42;47.10;;;26.87;;
16139;SDS011;8175;49.326;12.690;2023-02-10T01:53:13;47.30;;;26.20;;
16139;SDS011;8175;49.326;12.690;2023-02-10T01:55:41;46.97;;;26.57;;
16139;SDS011;8175;49.326;12.690;2023-02-10T01:58:11;54.00;;;29.07;;
16139;SDS011;8175;49.326;12.690;2023-02-10T02:00:39;52.30;;;29.10;;
16139;SDS011;8175;49.326;12.690;2023-02-10T02:03:04;58.23;;;29.70;;
16139;SDS011;8175;49.326;12.690;2023-02-10T02:05:38;49.47;;;28.13;;
16139;SDS011;8175;49.326;12.690;2023-02-10T02:08:07;50.97;;;26.93;;
16139;SDS011;8175;49.326;12.690;2023-02-10T02:21:37;51.93;;;27.90;;
16139;SDS011;8175;49.326;12.690;2023-02-10T02:24:41;50.60;;;26.10;;
16139;SDS011;8175;49.326;12.690;2023-02-10T02:32:27;51.50;;;26.37;;
16139;SDS011;8175;49.326;12.690;2023-02-10T02:37:29;54.00;;;28.03;;
16139;SDS011;8175;49.326;12.690;2023-02-10T02:39:58;53.33;;;27.47;;
16139;SDS011;8175;49.326;12.690;2023-02-10T02:42:25;53.80;;;26.33;;
16139;SDS011;8175;49.326;12.690;2023-02-10T02:53:28;54.60;;;27.77;;
16139;SDS011;8175;49.326;12.690;2023-02-10T02:59:03;59.33;;;29.90;;
16139;SDS011;8175;49.326;12.690;2023-02-10T03:01:34;67.30;;;31.93;;
16139;SDS011;8175;49.326;12.690;2023-02-10T03:04:04;54.17;;;29.37;;
16139;SDS011;8175;49.326;12.690;2023-02-10T03:06:31;55.87;;;26.90;;
16139;SDS011;8175;49.326;12.690;2023-02-10T03:08:56;48.07;;;27.90;;
16139;SDS011;8175;49.326;12.690;2023-02-10T03:11:22;58.90;;;32.67;;
16139;SDS011;8175;49.326;12.690;2023-02-10T03:13:48;61.17;;;30.33;;
16139;SDS011;8175;49.326;12.690;2023-02-10T03:16:13;57.57;;;30.60;;
16139;SDS011;8175;49.326;12.690;2023-02-10T03:18:39;58.33;;;29.50;;
16139;SDS011;8175;49.326;12.690;2023-02-10T03:21:05;61.50;;;29.47;;
16139;SDS011;8175;49.326;12.690;2023-02-10T03:23:30;60.30;;;30.77;;
16139;SDS011;8175;49.326;12.690;2023-02-10T03:25:59;59.17;;;30.03;;
16139;SDS011;8175;49.326;12.690;2023-02-10T03:28:26;49.23;;;27.67;;
16139;SDS011;8175;49.326;12.690;2023-02-10T03:30:52;57.93;;;31.60;;
16139;SDS011;8175;49.326;12.690;2023-02-10T03:33:18;51.50;;;29.57;;
16139;SDS011;8175;49.326;12.690;2023-02-10T03:35:44;51.60;;;29.07;;
16139;SDS011;8175;49.326;12.690;2023-02-10T03:38:11;57.70;;;30.87;;
16139;SDS011;8175;49.326;12.690;2023-02-10T03:40:37;54.50;;;28.53;;
16139;SDS011;8175;49.326;12.690;2023-02-10T03:43:03;52.47;;;29.90;;
16139;SDS011;8175;49.326;12.690;2023-02-10T03:45:29;51.07;;;28.07;;
16139;SDS011;8175;49.326;12.690;2023-02-10T03:47:55;58.83;;;29.87;;
16139;SDS011;8175;49.326;12.690;2023-02-10T03:50:21;48.67;;;26.67;;
16139;SDS011;8175;49.326;12.690;2023-02-10T03:52:46;49.30;;;26.97;;
16139;SDS011;8175;49.326;12.690;2023-02-10T03:55:12;48.37;;;27.43;;
16139;SDS011;8175;49.326;12.690;2023-02-10T03:57:40;61.40;;;31.77;;
16139;SDS011;8175;49.326;12.690;2023-02-10T04:00:06;58.27;;;30.33;;
16139;SDS011;8175;49.326;12.690;2023-02-10T04:02:32;55.47;;;28.47;;
16139;SDS011;8175;49.326;12.690;2023-02-10T04:04:58;59.60;;;30.07;;
16139;SDS011;8175;49.326;12.690;2023-02-10T04:07:23;67.57;;;31.43;;
16139;SDS011;8175;49.326;12.690;2023-02-10T04:09:49;57.83;;;28.43;;
16139;SDS011;8175;49.326;12.690;2023-02-10T04:12:14;63.17;;;28.80;;
16139;SDS011;8175;49.326;12.690;2023-02-10T04:14:40;57.37;;;31.67;;
16139;SDS011;8175;49.326;12.690;2023-02-10T04:17:05;56.57;;;30.93;;
16139;SDS011;8175;49.326;12.690;2023-02-10T04:19:31;56.77;;;29.90;;
16139;SDS011;8175;49.326;12.690;2023-02-10T04:21:57;64.50;;;31.73;;
16139;SDS011;8175;49.326;12.690;2023-02-10T04:24:22;60.23;;;29.87;;
16139;SDS011;8175;49.326;12.690;2023-02-10T04:26:48;61.43;;;31.03;;
16139;SDS011;8175;49.326;12.690;2023-02-10T04:29:14;53.27;;;29.77;;
16139;SDS011;8175;49.326;12.690;2023-02-10T04:31:39;62.67;;;29.97;;
16139;SDS011;8175;49.326;12.690;2023-02-10T04:34:05;57.60;;;29.27;;
16139;SDS011;8175;49.326;12.690;2023-02-10T04:36:31;60.43;;;30.43;;
16139;SDS011;8175;49.326;12.690;2023-02-10T04:38:56;57.57;;;30.07;;
16139;SDS011;8175;49.326;12.690;2023-02-10T04:41:22;58.17;;;30.63;;
16139;SDS011;8175;49.326;12.690;2023-02-10T04:43:48;57.27;;;31.53;;
16139;SDS011;8175;49.326;12.690;2023-02-10T04:46:13;55.37;;;30.83;;
16139;SDS011;8175;49.326;12.690;2023-02-10T04:48:39;62.07;;;31.73;;
16139;SDS011;8175;49.326;12.690;2023-02-10T04:51:06;63.63;;;31.93;;
16139;SDS011;8175;49.326;12.690;2023-02-10T04:53:32;65.87;;;30.90;;
16139;SDS011;8175;49.326;12.690;2023-02-10T04:55:58;62.87;;;32.53;;
16139;SDS011;8175;49.326;12.690;2023-02-10T04:58:24;58.00;;;31.53;;
16139;SDS011;8175;49.326;12.690;2023-02-10T05:00:49;57.30;;;29.37;;
16139;SDS011;8175;49.326;12.690;2023-02-10T05:03:15;55.57;;;28.93;;
16139;SDS011;8175;49.326;12.690;2023-02-10T05:05:40;52.97;;;29.23;;
16139;SDS011;8175;49.326;12.690;2023-02-10T05:08:06;53.17;;;29.33;;
16139;SDS011;8175;49.326;12.690;2023-02-10T05:10:32;57.53;;;29.90;;
16139;SDS011;8175;49.326;12.690;2023-02-10T05:12:57;55.47;;;29.17;;
16139;SDS011;8175;49.326;12.690;2023-02-10T05:15:23;61.83;;;32.27;;
16139;SDS011;8175;49.326;12.690;2023-02-10T05:17:49;57.17;;;30.27;;
16139;SDS011;8175;49.326;12.690;2023-02-10T05:20:14;52.57;;;31.67;;
16139;SDS011;8175;49.326;12.690;2023-02-10T05:22:40;51.03;;;27.37;;
16139;SDS011;8175;49.326;12.690;2023-02-10T05:25:06;52.37;;;29.43;;
16139;SDS011;8175;49.326;12.690;2023-02-10T05:27:32;45.00;;;25.10;;
16139;SDS011;8175;49.326;12.690;2023-02-10T05:29:58;60.90;;;30.90;;
16139;SDS011;8175;49.326;12.690;2023-02-10T05:32:24;56.67;;;31.67;;
16139;SDS011;8175;49.326;12.690;2023-02-10T05:34:50;55.57;;;28.77;;
16139;SDS011;8175;49.326;12.690;2023-02-10T05:37:16;60.10;;;30.17;;
16139;SDS011;8175;49.326;12.690;2023-02-10T05:39:41;60.83;;;31.83;;
16139;SDS011;8175;49.326;12.690;2023-02-10T05:42:07;66.50;;;33.30;;
16139;SDS011;8175;49.326;12.690;2023-02-10T05:44:33;71.23;;;37.83;;
16139;SDS011;8175;49.326;12.690;2023-02-10T05:46:59;63.47;;;33.07;;
16139;SDS011;8175;49.326;12.690;2023-02-10T05:49:24;52.60;;;28.87;;
16139;SDS011;8175;49.326;12.690;2023-02-10T05:51:50;53.10;;;29.23;;
16139;SDS011;8175;49.326;12.690;2023-02-10T05:54:16;53.10;;;28.97;;
16139;SDS011;8175;49.326;12.690;2023-02-10T05:56:41;54.83;;;29.13;;
16139;SDS011;8175;49.326;12.690;2023-02-10T05:59:08;59.90;;;30.47;;
16139;SDS011;8175;49.326;12.690;2023-02-10T06:01:38;66.33;;;37.33;;
16139;SDS011;8175;49.326;12.690;2023-02-10T06:04:03;54.23;;;30.50;;
16139;SDS011;8175;49.326;12.690;2023-02-10T06:06:29;55.97;;;30.67;;
16139;SDS011;8175;49.326;12.690;2023-02-10T06:08:54;60.77;;;31.43;;
16139;SDS011;8175;49.326;12.690;2023-02-10T06:11:20;55.90;;;29.10;;
16139;SDS011;8175;49.326;12.690;2023-02-10T06:13:46;56.93;;;31.17;;
16139;SDS011;8175;49.326;12.690;2023-02-10T06:16:11;56.43;;;31.10;;
16139;SDS011;8175;49.326;12.690;2023-02-10T06:18:37;62.90;;;32.67;;
16139;SDS011;8175;49.326;12.690;2023-02-10T06:21:03;55.57;;;30.20;;
16139;SDS011;8175;49.326;12.690;2023-02-10T06:23:28;52.33;;;30.60;;
16139;SDS011;8175;49.326;12.690;2023-02-10T06:25:54;63.10;;;33.70;;
16139;SDS011;8175;49.326;12.690;2023-02-10T06:28:22;60.70;;;32.63;;
16139;SDS011;8175;49.326;12.690;2023-02-10T06:30:51;56.00;;;30.17;;
16139;SDS011;8175;49.326;12.690;2023-02-10T06:33:17;65.93;;;35.77;;
16139;SDS011;8175;49.326;12.690;2023-02-10T06:35:43;108.13;;;52.93;;
16139;SDS011;8175;49.326;12.690;2023-02-10T06:38:09;83.50;;;41.67;;
16139;SDS011;8175;49.326;12.690;2023-02-10T06:40:35;81.40;;;40.07;;
16139;SDS011;8175;49.326;12.690;2023-02-10T06:43:00;82.93;;;41.50;;
16139;SDS011;8175;49.326;12.690;2023-02-10T06:45:26;63.13;;;34.60;;
16139;SDS011;8175;49.326;12.690;2023-02-10T06:47:53;69.57;;;37.57;;
16139;SDS011;8175;49.326;12.690;2023-02-10T06:50:18;71.40;;;35.03;;
16139;SDS011;8175;49.326;12.690;2023-02-10T06:52:45;57.97;;;30.57;;
16139;SDS011;8175;49.326;12.690;2023-02-10T06:55:11;59.40;;;31.33;;
16139;SDS011;8175;49.326;12.690;2023-02-10T06:57:37;66.63;;;32.73;;
16139;SDS011;8175;49.326;12.690;2023-02-10T07:00:03;65.67;;;34.43;;
16139;SDS011;8175;49.326;12.690;2023-02-10T07:02:32;60.37;;;32.00;;
16139;SDS011;8175;49.326;12.690;2023-02-10T07:04:58;65.23;;;33.07;;
16139;SDS011;8175;49.326;12.690;2023-02-10T07:07:24;58.37;;;31.10;;
16139;SDS011;8175;49.326;12.690;2023-02-10T07:09:49;59.30;;;31.90;;
16139;SDS011;8175;49.326;12.690;2023-02-10T07:12:18;67.13;;;31.70;;
16139;SDS011;8175;49.326;12.690;2023-02-10T07:14:44;60.93;;;28.43;;
16139;SDS011;8175;49.326;12.690;2023-02-10T07:17:10;61.90;;;31.33;;
16139;SDS011;8175;49.326;12.690;2023-02-10T07:19:36;56.20;;;28.97;;
16139;SDS011;8175;49.326;12.690;2023-02-10T07:22:01;56.87;;;31.00;;
16139;SDS011;8175;49.326;12.690;2023-02-10T07:24:30;60.90;;;31.57;;
16139;SDS011;8175;49.326;12.690;2023-02-10T07:26:56;63.80;;;34.43;;
16139;SDS011;8175;49.326;12.690;2023-02-10T07:29:21;63.20;;;31.87;;
16139;SDS011;8175;49.326;12.690;2023-02-10T07:31:47;75.80;;;35.77;;
16139;SDS011;8175;49.326;12.690;2023-02-10T07:34:13;60.57;;;33.30;;
16139;SDS011;8175;49.326;12.690;2023-02-10T07:36:38;74.70;;;38.03;;
16139;SDS011;8175;49.326;12.690;2023-02-10T07:39:04;64.43;;;35.70;;
16139;SDS011;8175;49.326;12.690;2023-02-10T07:41:30;63.03;;;33.03;;
16139;SDS011;8175;49.326;12.690;2023-02-10T07:43:55;68.57;;;34.67;;
16139;SDS011;8175;49.326;12.690;2023-02-10T07:46:21;65.47;;;34.13;;
16139;SDS011;8175;49.326;12.690;2023-02-10T07:48:46;81.13;;;43.00;;
16139;SDS011;8175;49.326;12.690;2023-02-10T07:51:12;82.00;;;41.17;;
16139;SDS011;8175;49.326;12.690;2023-02-10T07:53:38;93.13;;;45.83;;
16139;SDS011;8175;49.326;12.690;2023-02-10T07:56:04;83.37;;;41.67;;
16139;SDS011;8175;49.326;12.690;2023-02-10T07:58:30;108.17;;;49.10;;
16139;SDS011;8175;49.326;12.690;2023-02-10T08:00:56;112.37;;;54.00;;
16139;SDS011;8175;49.326;12.690;2023-02-10T08:03:22;93.93;;;45.23;;
16139;SDS011;8175;49.326;12.690;2023-02-10T08:05:47;58.73;;;33.77;;
16139;SDS011;8175;49.326;12.690;2023-02-10T08:08:14;50.03;;;29.67;;
16139;SDS011;8175;49.326;12.690;2023-02-10T08:10:40;55.50;;;34.23;;
16139;SDS011;8175;49.326;12.690;2023-02-10T08:13:06;65.80;;;38.13;;
16139;SDS011;8175;49.326;12.690;2023-02-10T08:15:32;52.17;;;30.17;;
16139;SDS011;8175;49.326;12.690;2023-02-10T08:17:58;43.07;;;27.33;;
16139;SDS011;8175;49.326;12.690;2023-02-10T08:20:25;50.60;;;32.83;;
16139;SDS011;8175;49.326;12.690;2023-02-10T08:22:54;51.60;;;32.87;;
16139;SDS011;8175;49.326;12.690;2023-02-10T08:25:21;39.30;;;25.93;;
16139;SDS011;8175;49.326;12.690;2023-02-10T08:27:47;45.30;;;27.63;;
16139;SDS011;8175;49.326;12.690;2023-02-10T08:30:12;44.17;;;27.17;;
16139;SDS011;8175;49.326;12.690;2023-02-10T08:32:38;39.00;;;27.00;;
16139;SDS011;8175;49.326;12.690;2023-02-10T08:35:04;48.00;;;28.90;;
16139;SDS011;8175;49.326;12.690;2023-02-10T08:37:30;47.43;;;28.60;;
16139;SDS011;8175;49.326;12.690;2023-02-10T08:39:55;41.13;;;27.03;;
16139;SDS011;8175;49.326;12.690;2023-02-10T08:42:21;46.43;;;29.67;;
16139;SDS011;8175;49.326;12.690;2023-02-10T08:44:47;42.30;;;26.03;;
16139;SDS011;8175;49.326;12.690;2023-02-10T08:47:13;35.93;;;23.67;;
16139;SDS011;8175;49.326;12.690;2023-02-10T08:49:39;39.97;;;24.20;;
16139;SDS011;8175;49.326;12.690;2023-02-10T08:52:05;42.10;;;25.23;;
16139;SDS011;8175;49.326;12.690;2023-02-10T08:54:31;44.13;;;25.93;;
16139;SDS011;8175;49.326;12.690;2023-02-10T08:56:57;37.60;;;24.93;;
16139;SDS011;8175;49.326;12.690;2023-02-10T08:59:22;40.57;;;24.63;;
16139;SDS011;8175;49.326;12.690;2023-02-10T09:01:48;37.53;;;23.57;;
16139;SDS011;8175;49.326;12.690;2023-02-10T09:04:14;44.17;;;25.20;;
16139;SDS011;8175;49.326;12.690;2023-02-10T09:06:40;38.63;;;24.43;;
16139;SDS011;8175;49.326;12.690;2023-02-10T09:09:19;40.70;;;24.97;;
16139;SDS011;8175;49.326;12.690;2023-02-10T09:11:47;40.97;;;23.93;;
16139;SDS011;8175;49.326;12.690;2023-02-10T09:14:13;37.20;;;22.90;;
16139;SDS011;8175;49.326;12.690;2023-02-10T09:16:39;36.77;;;22.97;;
16139;SDS011;8175;49.326;12.690;2023-02-10T09:19:04;37.63;;;21.10;;
16139;SDS011;8175;49.326;12.690;2023-02-10T09:21:31;43.13;;;23.50;;
16139;SDS011;8175;49.326;12.690;2023-02-10T09:23:57;33.60;;;23.07;;
16139;SDS011;8175;49.326;12.690;2023-02-10T09:26:22;39.27;;;22.23;;
16139;SDS011;8175;49.326;12.690;2023-02-10T09:28:48;33.93;;;21.27;;
16139;SDS011;8175;49.326;12.690;2023-02-10T09:31:14;33.20;;;20.73;;
16139;SDS011;8175;49.326;12.690;2023-02-10T09:33:41;33.50;;;21.27;;
16139;SDS011;8175;49.326;12.690;2023-02-10T09:36:08;39.37;;;22.77;;
16139;SDS011;8175;49.326;12.690;2023-02-10T09:38:38;28.73;;;18.37;;
16139;SDS011;8175;49.326;12.690;2023-02-10T09:46:13;31.80;;;20.13;;
16139;SDS011;8175;49.326;12.690;2023-02-10T09:54:08;28.93;;;17.73;;
16139;SDS011;8175;49.326;12.690;2023-02-10T09:56:35;30.23;;;18.83;;
16139;SDS011;8175;49.326;12.690;2023-02-10T09:59:02;31.70;;;17.97;;
16139;SDS011;8175;49.326;12.690;2023-02-10T10:01:30;28.43;;;18.43;;
16139;SDS011;8175;49.326;12.690;2023-02-10T10:04:25;32.13;;;19.23;;
16139;SDS011;8175;49.326;12.690;2023-02-10T10:10:44;24.90;;;16.53;;
16139;SDS011;8175;49.326;12.690;2023-02-10T10:12:53;28.30;;;19.50;;
16139;SDS011;8175;49.326;12.690;2023-02-10T10:15:19;28.20;;;19.00;;
16139;SDS011;8175;49.326;12.690;2023-02-10T10:18:05;26.43;;;17.77;;
16139;SDS011;8175;49.326;12.690;2023-02-10T10:20:43;25.67;;;15.90;;
16139;SDS011;8175;49.326;12.690;2023-02-10T10:23:23;23.93;;;17.67;;
16139;SDS011;8175;49.326;12.690;2023-02-10T10:28:49;28.67;;;17.20;;
16139;SDS011;8175;49.326;12.690;2023-02-10T10:31:39;27.03;;;18.90;;
16139;SDS011;8175;49.326;12.690;2023-02-10T10:34:18;25.60;;;16.83;;
16139;SDS011;8175;49.326;12.690;2023-02-10T10:36:49;30.37;;;18.10;;
16139;SDS011;8175;49.326;12.690;2023-02-10T10:39:26;28.60;;;17.70;;
16139;SDS011;8175;49.326;12.690;2023-02-10T10:42:02;26.00;;;17.93;;
16139;SDS011;8175;49.326;12.690;2023-02-10T10:44:38;26.50;;;19.60;;
16139;SDS011;8175;49.326;12.690;2023-02-10T10:47:06;27.03;;;17.73;;
16139;SDS011;8175;49.326;12.690;2023-02-10T10:50:12;26.97;;;17.20;;
16139;SDS011;8175;49.326;12.690;2023-02-10T10:52:42;30.07;;;19.50;;
16139;SDS011;8175;49.326;12.690;2023-02-10T10:55:16;28.50;;;19.47;;
16139;SDS011;8175;49.326;12.690;2023-02-10T10:58:00;28.00;;;18.40;;
16139;SDS011;8175;49.326;12.690;2023-02-10T11:00:28;28.13;;;18.77;;
16139;SDS011;8175;49.326;12.690;2023-02-10T11:03:00;26.60;;;17.80;;
16139;SDS011;8175;49.326;12.690;2023-02-10T11:05:31;27.10;;;18.53;;
16139;SDS011;8175;49.326;12.690;2023-02-10T11:08:00;28.90;;;19.53;;
16139;SDS011;8175;49.326;12.690;2023-02-10T11:12:51;27.00;;;18.40;;
16139;SDS011;8175;49.326;12.690;2023-02-10T11:15:37;26.17;;;19.10;;
16139;SDS011;8175;49.326;12.690;2023-02-10T11:18:05;29.40;;;19.13;;
16139;SDS011;8175;49.326;12.690;2023-02-10T11:20:38;28.73;;;18.73;;
16139;SDS011;8175;49.326;12.690;2023-02-10T11:23:12;36.77;;;19.63;;
16139;SDS011;8175;49.326;12.690;2023-02-10T11:25:39;26.90;;;18.87;;
16139;SDS011;8175;49.326;12.690;2023-02-10T11:28:15;27.53;;;19.03;;
16139;SDS011;8175;49.326;12.690;2023-02-10T11:30:46;25.33;;;17.47;;
16139;SDS011;8175;49.326;12.690;2023-02-10T11:33:20;24.30;;;16.30;;
16139;SDS011;8175;49.326;12.690;2023-02-10T11:35:49;27.57;;;18.83;;
16139;SDS011;8175;49.326;12.690;2023-02-10T11:38:19;24.20;;;17.50;;
16139;SDS011;8175;49.326;12.690;2023-02-10T11:40:48;24.67;;;17.63;;
16139;SDS011;8175;49.326;12.690;2023-02-10T11:43:15;25.17;;;17.83;;
16139;SDS011;8175;49.326;12.690;2023-02-10T11:45:50;24.53;;;17.70;;
16139;SDS011;8175;49.326;12.690;2023-02-10T11:48:19;22.67;;;16.57;;
16139;SDS011;8175;49.326;12.690;2023-02-10T11:50:47;24.13;;;17.30;;
16139;SDS011;8175;49.326;12.690;2023-02-10T11:53:25;24.80;;;17.53;;
16139;SDS011;8175;49.326;12.690;2023-02-10T11:56:08;24.07;;;15.90;;
16139;SDS011;8175;49.326;12.690;2023-02-10T11:59:31;22.70;;;16.77;;
16139;SDS011;8175;49.326;12.690;2023-02-10T12:13:23;21.20;;;17.03;;
16139;SDS011;8175;49.326;12.690;2023-02-10T12:18:57;21.63;;;16.10;;
16139;SDS011;8175;49.326;12.690;2023-02-10T12:21:35;24.43;;;17.03;;
16139;SDS011;8175;49.326;12.690;2023-02-10T12:50:02;62.87;;;34.37;;
16139;SDS011;8175;49.326;12.690;2023-02-10T12:52:39;32.50;;;21.70;;
16139;SDS011;8175;49.326;12.690;2023-02-10T12:57:48;24.63;;;18.33;;
16139;SDS011;8175;49.326;12.690;2023-02-10T13:03:14;26.10;;;19.03;;
16139;SDS011;8175;49.326;12.690;2023-02-10T13:05:49;26.07;;;18.00;;
16139;SDS011;8175;49.326;12.690;2023-02-10T13:08:34;30.93;;;20.27;;
16139;SDS011;8175;49.326;12.690;2023-02-10T13:11:11;23.63;;;17.20;;
16139;SDS011;8175;49.326;12.690;2023-02-10T13:13:45;23.20;;;17.07;;
16139;SDS011;8175;49.326;12.690;2023-02-10T13:16:16;25.87;;;17.03;;
16139;SDS011;8175;49.326;12.690;2023-02-10T13:21:22;27.27;;;18.70;;
16139;SDS011;8175;49.326;12.690;2023-02-10T13:31:57;25.70;;;17.23;;
16139;SDS011;8175;49.326;12.690;2023-02-10T13:34:44;27.87;;;19.67;;
16139;SDS011;8175;49.326;12.690;2023-02-10T13:39:55;32.73;;;19.37;;
16139;SDS011;8175;49.326;12.690;2023-02-10T13:42:36;45.00;;;26.23;;
16139;SDS011;8175;49.326;12.690;2023-02-10T13:45:04;154.53;;;78.73;;
16139;SDS011;8175;49.326;12.690;2023-02-10T13:47:41;46.27;;;24.40;;
16139;SDS011;8175;49.326;12.690;2023-02-10T13:52:50;76.30;;;44.63;;
16139;SDS011;8175;49.326;12.690;2023-02-10T13:55:43;143.63;;;72.00;;
16139;SDS011;8175;49.326;12.690;2023-02-10T14:08:36;26.63;;;17.73;;
16139;SDS011;8175;49.326;12.690;2023-02-10T14:13:39;26.50;;;17.70;;
16139;SDS011;8175;49.326;12.690;2023-02-10T14:16:26;31.27;;;20.60;;
16139;SDS011;8175;49.326;12.690;2023-02-10T14:19:04;23.37;;;16.20;;
16139;SDS011;8175;49.326;12.690;2023-02-10T14:21:44;25.73;;;17.17;;
16139;SDS011;8175;49.326;12.690;2023-02-10T14:24:16;23.43;;;16.60;;
16139;SDS011;8175;49.326;12.690;2023-02-10T14:26:47;25.83;;;17.90;;
16139;SDS011;8175;49.326;12.690;2023-02-10T14:29:15;28.67;;;20.13;;
16139;SDS011;8175;49.326;12.690;2023-02-10T14:31:43;36.37;;;24.80;;
16139;SDS011;8175;49.326;12.690;2023-02-10T14:34:20;25.57;;;17.60;;
16139;SDS011;8175;49.326;12.690;2023-02-10T14:37:29;26.23;;;17.03;;
16139;SDS011;8175;49.326;12.690;2023-02-10T14:39:54;71.70;;;42.13;;
16139;SDS011;8175;49.326;12.690;2023-02-10T14:42:22;63.53;;;38.93;;
16139;SDS011;8175;49.326;12.690;2023-02-10T14:44:50;52.70;;;30.90;;
16139;SDS011;8175;49.326;12.690;2023-02-10T14:49:51;55.37;;;31.47;;
16139;SDS011;8175;49.326;12.690;2023-02-10T14:52:26;38.53;;;24.07;;
16139;SDS011;8175;49.326;12.690;2023-02-10T14:54:59;31.00;;;17.60;;
16139;SDS011;8175;49.326;12.690;2023-02-10T14:57:26;29.43;;;17.83;;
16139;SDS011;8175;49.326;12.690;2023-02-10T14:59:57;47.47;;;27.13;;
16139;SDS011;8175;49.326;12.690;2023-02-10T15:02:28;80.63;;;43.97;;
16139;SDS011;8175;49.326;12.690;2023-02-10T15:04:56;28.00;;;18.57;;
16139;SDS011;8175;49.326;12.690;2023-02-10T15:07:34;26.53;;;18.23;;
16139;SDS011;8175;49.326;12.690;2023-02-10T15:10:13;25.33;;;16.20;;
16139;SDS011;8175;49.326;12.690;2023-02-10T15:12:47;31.20;;;16.97;;
16139;SDS011;8175;49.326;12.690;2023-02-10T15:15:22;25.27;;;16.93;;
16139;SDS011;8175;49.326;12.690;2023-02-10T15:17:54;26.37;;;16.73;;
16139;SDS011;8175;49.326;12.690;2023-02-10T15:20:25;27.33;;;18.10;;
16139;SDS011;8175;49.326;12.690;2023-02-10T15:27:59;30.83;;;21.33;;
16139;SDS011;8175;49.326;12.690;2023-02-10T15:30:42;30.60;;;18.73;;
16139;SDS011;8175;49.326;12.690;2023-02-10T15:33:24;33.93;;;21.73;;
16139;SDS011;8175;49.326;12.690;2023-02-10T15:38:32;33.87;;;20.30;;
16139;SDS011;8175;49.326;12.690;2023-02-10T15:40:59;35.13;;;21.67;;
16139;SDS011;8175;49.326;12.690;2023-02-10T15:48:40;26.17;;;19.53;;
16139;SDS011;8175;49.326;12.690;2023-02-10T15:51:06;33.10;;;20.03;;
16139;SDS011;8175;49.326;12.690;2023-02-10T15:53:44;26.57;;;17.27;;
16139;SDS011;8175;49.326;12.690;2023-02-10T15:56:10;26.40;;;16.93;;
16139;SDS011;8175;49.326;12.690;2023-02-10T15:58:35;26.07;;;16.80;;
16139;SDS011;8175;49.326;12.690;2023-02-10T16:01:01;24.87;;;16.03;;
16139;SDS011;8175;49.326;12.690;2023-02-10T16:03:27;27.47;;;18.47;;
16139;SDS011;8175;49.326;12.690;2023-02-10T16:05:52;29.87;;;17.63;;
16139;SDS011;8175;49.326;12.690;2023-02-10T16:08:24;28.20;;;16.90;;
16139;SDS011;8175;49.326;12.690;2023-02-10T16:10:50;28.50;;;16.73;;
16139;SDS011;8175;49.326;12.690;2023-02-10T16:13:15;27.43;;;17.23;;
16139;SDS011;8175;49.326;12.690;2023-02-10T16:15:42;27.67;;;18.27;;
16139;SDS011;8175;49.326;12.690;2023-02-10T16:18:10;24.60;;;17.23;;
16139;SDS011;8175;49.326;12.690;2023-02-10T16:20:38;27.13;;;17.30;;
16139;SDS011;8175;49.326;12.690;2023-02-10T16:23:04;25.33;;;17.53;;
16139;SDS011;8175;49.326;12.690;2023-02-10T16:25:37;29.97;;;19.10;;
16139;SDS011;8175;49.326;12.690;2023-02-10T16:28:04;25.73;;;18.80;;
16139;SDS011;8175;49.326;12.690;2023-02-10T16:30:29;30.80;;;18.47;;
16139;SDS011;8175;49.326;12.690;2023-02-10T16:32:57;24.83;;;16.30;;
16139;SDS011;8175;49.326;12.690;2023-02-10T16:35:23;29.70;;;18.43;;
16139;SDS011;8175;49.326;12.690;2023-02-10T16:37:49;29.57;;;18.17;;
16139;SDS011;8175;49.326;12.690;2023-02-10T16:40:23;30.27;;;18.13;;
16139;SDS011;8175;49.326;12.690;2023-02-10T16:42:51;25.97;;;17.60;;
16139;SDS011;8175;49.326;12.690;2023-02-10T16:45:19;27.87;;;17.23;;
16139;SDS011;8175;49.326;12.690;2023-02-10T16:47:48;28.00;;;16.60;;
16139;SDS011;8175;49.326;12.690;2023-02-10T16:50:30;27.57;;;18.60;;